sensor_id;sensor_type;location;lat;lon;timestamp;P1;durP1;ratioP1;P2;durP2;ratioP2
13441;SDS011;6793;55.662;13.114;2024-02-28T00:00:13;1.00;;;1.00;;
13441;SDS011;6793;55.662;13.114;2024-02-28T00:02:40;0.87;;;0.87;;
13441;SDS011;6793;55.662;13.114;2024-02-28T00:05:07;1.00;;;1.00;;
13441;SDS011;6793;55.662;13.114;2024-02-28T00:07:35;0.97;;;0.97;;
13441;SDS011;6793;55.662;13.114;2024-02-28T00:10:03;1.00;;;1.00;;
13441;SDS011;6793;55.662;13.114;2024-02-28T00:12:31;1.00;;;1.00;;
13441;SDS011;6793;55.662;13.114;2024-02-28T00:14:59;1.00;;;1.00;;
13441;SDS011;6793;55.662;13.114;2024-02-28T00:17:26;0.90;;;0.90;;
13441;SDS011;6793;55.662;13.114;2024-02-28T00:19:53;0.97;;;0.97;;
13441;SDS011;6793;55.662;13.114;2024-02-28T00:22:20;0.90;;;0.90;;
13441;SDS011;6793;55.662;13.114;2024-02-28T00:24:47;0.93;;;0.93;;
13441;SDS011;6793;55.662;13.114;2024-02-28T00:27:16;0.90;;;0.90;;
13441;SDS011;6793;55.662;13.114;2024-02-28T00:29:43;1.00;;;1.00;;
13441;SDS011;6793;55.662;13.114;2024-02-28T00:32:11;1.00;;;1.00;;
13441;SDS011;6793;55.662;13.114;2024-02-28T00:34:38;0.90;;;0.90;;
13441;SDS011;6793;55.662;13.114;2024-02-28T00:37:05;1.00;;;1.00;;
13441;SDS011;6793;55.662;13.114;2024-02-28T00:39:32;1.00;;;1.00;;
13441;SDS011;6793;55.662;13.114;2024-02-28T00:41:59;0.90;;;0.90;;
13441;SDS011;6793;55.662;13.114;2024-02-28T00:44:28;0.93;;;0.93;;
13441;SDS011;6793;55.662;13.114;2024-02-28T00:46:55;1.00;;;1.00;;
13441;SDS011;6793;55.662;13.114;2024-02-28T00:49:22;1.00;;;1.00;;
13441;SDS011;6793;55.662;13.114;2024-02-28T00:51:49;1.00;;;1.00;;
13441;SDS011;6793;55.662;13.114;2024-02-28T00:54:16;0.80;;;0.80;;
13441;SDS011;6793;55.662;13.114;2024-02-28T00:56:43;0.90;;;0.90;;
13441;SDS011;6793;55.662;13.114;2024-02-28T00:59:10;0.90;;;0.90;;
13441;SDS011;6793;55.662;13.114;2024-02-28T01:01:39;0.90;;;0.90;;
13441;SDS011;6793;55.662;13.114;2024-02-28T01:04:07;0.90;;;0.90;;
13441;SDS011;6793;55.662;13.114;2024-02-28T01:06:34;0.87;;;0.87;;
13441;SDS011;6793;55.662;13.114;2024-02-28T01:09:02;1.00;;;1.00;;
13441;SDS011;6793;55.662;13.114;2024-02-28T01:11:29;0.80;;;0.80;;
13441;SDS011;6793;55.662;13.114;2024-02-28T01:13:57;1.00;;;1.00;;
13441;SDS011;6793;55.662;13.114;2024-02-28T01:16:24;0.80;;;0.80;;
13441;SDS011;6793;55.662;13.114;2024-02-28T01:18:54;0.90;;;0.90;;
13441;SDS011;6793;55.662;13.114;2024-02-28T01:21:21;1.00;;;1.00;;
13441;SDS011;6793;55.662;13.114;2024-02-28T01:23:48;0.90;;;0.90;;
13441;SDS011;6793;55.662;13.114;2024-02-28T01:26:15;0.90;;;0.90;;
13441;SDS011;6793;55.662;13.114;2024-02-28T01:28:45;0.90;;;0.90;;
13441;SDS011;6793;55.662;13.114;2024-02-28T01:31:12;0.80;;;0.80;;
13441;SDS011;6793;55.662;13.114;2024-02-28T01:33:39;0.80;;;0.80;;
13441;SDS011;6793;55.662;13.114;2024-02-28T01:36:07;0.80;;;0.80;;
13441;SDS011;6793;55.662;13.114;2024-02-28T01:38:35;0.80;;;0.80;;
13441;SDS011;6793;55.662;13.114;2024-02-28T01:41:02;0.80;;;0.80;;
13441;SDS011;6793;55.662;13.114;2024-02-28T01:43:30;0.90;;;0.90;;
13441;SDS011;6793;55.662;13.114;2024-02-28T01:45:58;0.80;;;0.80;;
13441;SDS011;6793;55.662;13.114;2024-02-28T01:48:26;0.70;;;0.70;;
13441;SDS011;6793;55.662;13.114;2024-02-28T01:50:53;0.90;;;0.90;;
13441;SDS011;6793;55.662;13.114;2024-02-28T01:53:22;0.90;;;0.90;;
13441;SDS011;6793;55.662;13.114;2024-02-28T01:55:49;0.70;;;0.70;;
13441;SDS011;6793;55.662;13.114;2024-02-28T01:58:17;0.80;;;0.80;;
13441;SDS011;6793;55.662;13.114;2024-02-28T02:00:44;0.80;;;0.80;;
13441;SDS011;6793;55.662;13.114;2024-02-28T02:03:11;0.80;;;0.80;;
13441;SDS011;6793;55.662;13.114;2024-02-28T02:05:38;0.77;;;0.77;;
13441;SDS011;6793;55.662;13.114;2024-02-28T02:08:08;0.80;;;0.80;;
13441;SDS011;6793;55.662;13.114;2024-02-28T02:10:37;0.70;;;0.70;;
13441;SDS011;6793;55.662;13.114;2024-02-28T02:13:04;0.70;;;0.70;;
13441;SDS011;6793;55.662;13.114;2024-02-28T02:15:32;0.70;;;0.70;;
13441;SDS011;6793;55.662;13.114;2024-02-28T02:17:59;0.80;;;0.80;;
13441;SDS011;6793;55.662;13.114;2024-02-28T02:20:26;0.70;;;0.70;;
13441;SDS011;6793;55.662;13.114;2024-02-28T02:22:58;0.70;;;0.70;;
13441;SDS011;6793;55.662;13.114;2024-02-28T02:25:25;0.70;;;0.70;;
13441;SDS011;6793;55.662;13.114;2024-02-28T02:27:52;0.70;;;0.70;;
13441;SDS011;6793;55.662;13.114;2024-02-28T02:30:19;0.70;;;0.70;;
13441;SDS011;6793;55.662;13.114;2024-02-28T02:32:46;0.70;;;0.70;;
13441;SDS011;6793;55.662;13.114;2024-02-28T02:35:14;0.70;;;0.70;;
13441;SDS011;6793;55.662;13.114;2024-02-28T02:37:43;0.60;;;0.60;;
13441;SDS011;6793;55.662;13.114;2024-02-28T02:40:14;0.73;;;0.73;;
13441;SDS011;6793;55.662;13.114;2024-02-28T02:42:42;0.70;;;0.70;;
13441;SDS011;6793;55.662;13.114;2024-02-28T02:45:09;0.70;;;0.70;;
13441;SDS011;6793;55.662;13.114;2024-02-28T02:47:35;0.80;;;0.80;;
13441;SDS011;6793;55.662;13.114;2024-02-28T02:50:02;0.70;;;0.70;;
13441;SDS011;6793;55.662;13.114;2024-02-28T02:52:29;0.50;;;0.50;;
13441;SDS011;6793;55.662;13.114;2024-02-28T02:54:56;0.60;;;0.60;;
13441;SDS011;6793;55.662;13.114;2024-02-28T02:57:25;0.70;;;0.70;;
13441;SDS011;6793;55.662;13.114;2024-02-28T02:59:52;0.70;;;0.70;;
13441;SDS011;6793;55.662;13.114;2024-02-28T03:02:19;0.70;;;0.70;;
13441;SDS011;6793;55.662;13.114;2024-02-28T03:04:46;0.60;;;0.60;;
13441;SDS011;6793;55.662;13.114;2024-02-28T03:07:13;0.70;;;0.70;;
13441;SDS011;6793;55.662;13.114;2024-02-28T03:09:40;0.70;;;0.70;;
13441;SDS011;6793;55.662;13.114;2024-02-28T03:12:07;0.70;;;0.70;;
13441;SDS011;6793;55.662;13.114;2024-02-28T03:14:36;0.60;;;0.60;;
13441;SDS011;6793;55.662;13.114;2024-02-28T03:17:03;0.70;;;0.70;;
13441;SDS011;6793;55.662;13.114;2024-02-28T03:19:30;0.60;;;0.60;;
13441;SDS011;6793;55.662;13.114;2024-02-28T03:21:57;0.60;;;0.60;;
13441;SDS011;6793;55.662;13.114;2024-02-28T03:24:24;0.60;;;0.60;;
13441;SDS011;6793;55.662;13.114;2024-02-28T03:26:52;0.60;;;0.60;;
13441;SDS011;6793;55.662;13.114;2024-02-28T03:29:19;0.70;;;0.70;;
13441;SDS011;6793;55.662;13.114;2024-02-28T03:31:47;0.63;;;0.63;;
13441;SDS011;6793;55.662;13.114;2024-02-28T03:34:14;0.70;;;0.70;;
13441;SDS011;6793;55.662;13.114;2024-02-28T03:36:42;0.60;;;0.60;;
13441;SDS011;6793;55.662;13.114;2024-02-28T03:39:09;0.60;;;0.60;;
13441;SDS011;6793;55.662;13.114;2024-02-28T03:41:36;0.60;;;0.60;;
13441;SDS011;6793;55.662;13.114;2024-02-28T03:44:03;0.60;;;0.60;;
13441;SDS011;6793;55.662;13.114;2024-02-28T03:46:30;0.60;;;0.60;;
13441;SDS011;6793;55.662;13.114;2024-02-28T03:48:59;0.70;;;0.70;;
13441;SDS011;6793;55.662;13.114;2024-02-28T03:51:26;0.60;;;0.60;;
13441;SDS011;6793;55.662;13.114;2024-02-28T03:53:53;0.67;;;0.67;;
13441;SDS011;6793;55.662;13.114;2024-02-28T03:56:23;0.60;;;0.60;;
13441;SDS011;6793;55.662;13.114;2024-02-28T03:58:51;0.63;;;0.63;;
13441;SDS011;6793;55.662;13.114;2024-02-28T04:01:19;0.70;;;0.70;;
13441;SDS011;6793;55.662;13.114;2024-02-28T04:03:52;0.60;;;0.60;;
13441;SDS011;6793;55.662;13.114;2024-02-28T04:06:21;0.60;;;0.60;;
13441;SDS011;6793;55.662;13.114;2024-02-28T04:08:48;0.60;;;0.60;;
13441;SDS011;6793;55.662;13.114;2024-02-28T04:11:16;0.60;;;0.60;;
13441;SDS011;6793;55.662;13.114;2024-02-28T04:13:43;0.60;;;0.60;;
13441;SDS011;6793;55.662;13.114;2024-02-28T04:16:10;0.60;;;0.60;;
13441;SDS011;6793;55.662;13.114;2024-02-28T04:18:40;0.68;;;0.68;;
13441;SDS011;6793;55.662;13.114;2024-02-28T04:21:08;0.55;;;0.55;;
13441;SDS011;6793;55.662;13.114;2024-02-28T04:23:36;0.50;;;0.50;;
13441;SDS011;6793;55.662;13.114;2024-02-28T04:26:04;0.60;;;0.60;;
13441;SDS011;6793;55.662;13.114;2024-02-28T04:28:32;0.50;;;0.50;;
13441;SDS011;6793;55.662;13.114;2024-02-28T04:30:59;0.60;;;0.60;;
13441;SDS011;6793;55.662;13.114;2024-02-28T04:33:27;0.70;;;0.70;;
13441;SDS011;6793;55.662;13.114;2024-02-28T04:35:58;0.60;;;0.60;;
13441;SDS011;6793;55.662;13.114;2024-02-28T04:38:25;0.60;;;0.60;;
13441;SDS011;6793;55.662;13.114;2024-02-28T04:40:54;0.60;;;0.60;;
13441;SDS011;6793;55.662;13.114;2024-02-28T04:43:21;0.60;;;0.60;;
13441;SDS011;6793;55.662;13.114;2024-02-28T04:45:48;0.57;;;0.57;;
13441;SDS011;6793;55.662;13.114;2024-02-28T04:48:15;0.60;;;0.60;;
13441;SDS011;6793;55.662;13.114;2024-02-28T04:50:42;0.50;;;0.50;;
13441;SDS011;6793;55.662;13.114;2024-02-28T04:53:11;0.55;;;0.55;;
13441;SDS011;6793;55.662;13.114;2024-02-28T04:55:40;0.53;;;0.53;;
13441;SDS011;6793;55.662;13.114;2024-02-28T04:58:09;0.60;;;0.60;;
13441;SDS011;6793;55.662;13.114;2024-02-28T05:00:36;0.60;;;0.60;;
13441;SDS011;6793;55.662;13.114;2024-02-28T05:03:04;0.60;;;0.60;;
13441;SDS011;6793;55.662;13.114;2024-02-28T05:05:31;0.50;;;0.50;;
13441;SDS011;6793;55.662;13.114;2024-02-28T05:07:58;0.60;;;0.60;;
13441;SDS011;6793;55.662;13.114;2024-02-28T05:10:26;0.57;;;0.57;;
13441;SDS011;6793;55.662;13.114;2024-02-28T05:12:53;0.50;;;0.50;;
13441;SDS011;6793;55.662;13.114;2024-02-28T05:15:21;0.60;;;0.60;;
13441;SDS011;6793;55.662;13.114;2024-02-28T05:17:49;0.60;;;0.60;;
13441;SDS011;6793;55.662;13.114;2024-02-28T05:20:17;0.60;;;0.60;;
13441;SDS011;6793;55.662;13.114;2024-02-28T05:22:44;0.60;;;0.60;;
13441;SDS011;6793;55.662;13.114;2024-02-28T05:25:11;0.70;;;0.70;;
13441;SDS011;6793;55.662;13.114;2024-02-28T05:27:38;0.60;;;0.60;;
13441;SDS011;6793;55.662;13.114;2024-02-28T05:30:06;0.60;;;0.60;;
13441;SDS011;6793;55.662;13.114;2024-02-28T05:32:35;0.60;;;0.60;;
13441;SDS011;6793;55.662;13.114;2024-02-28T05:35:02;0.55;;;0.55;;
13441;SDS011;6793;55.662;13.114;2024-02-28T05:37:29;0.70;;;0.70;;
13441;SDS011;6793;55.662;13.114;2024-02-28T05:39:56;0.70;;;0.70;;
13441;SDS011;6793;55.662;13.114;2024-02-28T05:42:23;0.60;;;0.60;;
13441;SDS011;6793;55.662;13.114;2024-02-28T05:44:50;0.70;;;0.70;;
13441;SDS011;6793;55.662;13.114;2024-02-28T05:47:17;0.70;;;0.70;;
13441;SDS011;6793;55.662;13.114;2024-02-28T05:49:46;0.60;;;0.60;;
13441;SDS011;6793;55.662;13.114;2024-02-28T05:52:13;0.65;;;0.65;;
13441;SDS011;6793;55.662;13.114;2024-02-28T05:54:40;0.60;;;0.60;;
13441;SDS011;6793;55.662;13.114;2024-02-28T05:57:08;0.60;;;0.60;;
13441;SDS011;6793;55.662;13.114;2024-02-28T05:59:35;0.50;;;0.50;;
13441;SDS011;6793;55.662;13.114;2024-02-28T06:02:02;0.60;;;0.60;;
13441;SDS011;6793;55.662;13.114;2024-02-28T06:04:29;0.60;;;0.60;;
13441;SDS011;6793;55.662;13.114;2024-02-28T06:06:58;0.60;;;0.60;;
13441;SDS011;6793;55.662;13.114;2024-02-28T06:09:25;0.60;;;0.60;;
13441;SDS011;6793;55.662;13.114;2024-02-28T06:11:53;0.50;;;0.50;;
13441;SDS011;6793;55.662;13.114;2024-02-28T06:14:21;0.60;;;0.60;;
13441;SDS011;6793;55.662;13.114;2024-02-28T06:16:48;0.63;;;0.63;;
13441;SDS011;6793;55.662;13.114;2024-02-28T06:19:15;0.55;;;0.55;;
13441;SDS011;6793;55.662;13.114;2024-02-28T06:21:42;0.60;;;0.60;;
13441;SDS011;6793;55.662;13.114;2024-02-28T06:24:11;0.70;;;0.70;;
13441;SDS011;6793;55.662;13.114;2024-02-28T06:26:39;0.63;;;0.63;;
13441;SDS011;6793;55.662;13.114;2024-02-28T06:29:06;0.60;;;0.60;;
13441;SDS011;6793;55.662;13.114;2024-02-28T06:31:34;0.60;;;0.60;;
13441;SDS011;6793;55.662;13.114;2024-02-28T06:34:00;0.60;;;0.60;;
13441;SDS011;6793;55.662;13.114;2024-02-28T06:36:28;0.60;;;0.60;;
13441;SDS011;6793;55.662;13.114;2024-02-28T06:38:55;0.70;;;0.70;;
13441;SDS011;6793;55.662;13.114;2024-02-28T06:41:24;0.57;;;0.57;;
13441;SDS011;6793;55.662;13.114;2024-02-28T06:43:51;0.60;;;0.60;;
13441;SDS011;6793;55.662;13.114;2024-02-28T06:46:19;0.60;;;0.60;;
13441;SDS011;6793;55.662;13.114;2024-02-28T06:48:46;0.60;;;0.60;;
13441;SDS011;6793;55.662;13.114;2024-02-28T06:51:15;0.60;;;0.60;;
13441;SDS011;6793;55.662;13.114;2024-02-28T06:53:43;0.55;;;0.55;;
13441;SDS011;6793;55.662;13.114;2024-02-28T06:56:10;0.60;;;0.60;;
13441;SDS011;6793;55.662;13.114;2024-02-28T06:58:39;0.60;;;0.60;;
13441;SDS011;6793;55.662;13.114;2024-02-28T07:01:06;0.68;;;0.68;;
13441;SDS011;6793;55.662;13.114;2024-02-28T07:03:33;0.60;;;0.60;;
13441;SDS011;6793;55.662;13.114;2024-02-28T07:06:01;0.50;;;0.50;;
13441;SDS011;6793;55.662;13.114;2024-02-28T07:08:28;0.68;;;0.68;;
13441;SDS011;6793;55.662;13.114;2024-02-28T07:10:55;0.70;;;0.70;;
13441;SDS011;6793;55.662;13.114;2024-02-28T07:13:22;0.60;;;0.60;;
13441;SDS011;6793;55.662;13.114;2024-02-28T07:15:51;0.60;;;0.60;;
13441;SDS011;6793;55.662;13.114;2024-02-28T07:18:19;0.60;;;0.60;;
13441;SDS011;6793;55.662;13.114;2024-02-28T07:20:46;0.70;;;0.70;;
13441;SDS011;6793;55.662;13.114;2024-02-28T07:23:13;0.60;;;0.60;;
13441;SDS011;6793;55.662;13.114;2024-02-28T07:25:40;0.70;;;0.70;;
13441;SDS011;6793;55.662;13.114;2024-02-28T07:28:08;0.60;;;0.60;;
13441;SDS011;6793;55.662;13.114;2024-02-28T07:30:35;0.60;;;0.60;;
13441;SDS011;6793;55.662;13.114;2024-02-28T07:33:04;0.63;;;0.63;;
13441;SDS011;6793;55.662;13.114;2024-02-28T07:35:31;0.60;;;0.60;;
13441;SDS011;6793;55.662;13.114;2024-02-28T07:37:58;0.70;;;0.70;;
13441;SDS011;6793;55.662;13.114;2024-02-28T07:40:26;0.70;;;0.70;;
13441;SDS011;6793;55.662;13.114;2024-02-28T07:42:56;0.70;;;0.70;;
13441;SDS011;6793;55.662;13.114;2024-02-28T07:45:23;0.70;;;0.70;;
13441;SDS011;6793;55.662;13.114;2024-02-28T07:47:50;0.60;;;0.60;;
13441;SDS011;6793;55.662;13.114;2024-02-28T07:50:18;0.70;;;0.70;;
13441;SDS011;6793;55.662;13.114;2024-02-28T07:52:45;0.70;;;0.70;;
13441;SDS011;6793;55.662;13.114;2024-02-28T07:55:13;0.70;;;0.70;;
13441;SDS011;6793;55.662;13.114;2024-02-28T07:57:40;0.60;;;0.60;;
13441;SDS011;6793;55.662;13.114;2024-02-28T08:00:07;0.70;;;0.70;;
13441;SDS011;6793;55.662;13.114;2024-02-28T08:02:34;0.70;;;0.70;;
13441;SDS011;6793;55.662;13.114;2024-02-28T08:05:02;0.70;;;0.70;;
13441;SDS011;6793;55.662;13.114;2024-02-28T08:07:33;0.80;;;0.80;;
13441;SDS011;6793;55.662;13.114;2024-02-28T08:10:01;0.73;;;0.73;;
13441;SDS011;6793;55.662;13.114;2024-02-28T08:12:30;0.70;;;0.70;;
13441;SDS011;6793;55.662;13.114;2024-02-28T08:14:57;0.70;;;0.70;;
13441;SDS011;6793;55.662;13.114;2024-02-28T08:17:24;0.75;;;0.75;;
13441;SDS011;6793;55.662;13.114;2024-02-28T08:19:51;0.70;;;0.70;;
13441;SDS011;6793;55.662;13.114;2024-02-28T08:22:19;0.80;;;0.80;;
13441;SDS011;6793;55.662;13.114;2024-02-28T08:24:48;0.70;;;0.70;;
13441;SDS011;6793;55.662;13.114;2024-02-28T08:27:17;0.80;;;0.80;;
13441;SDS011;6793;55.662;13.114;2024-02-28T08:29:45;0.80;;;0.80;;
13441;SDS011;6793;55.662;13.114;2024-02-28T08:32:12;0.80;;;0.80;;
13441;SDS011;6793;55.662;13.114;2024-02-28T08:34:43;0.80;;;0.80;;
13441;SDS011;6793;55.662;13.114;2024-02-28T08:37:10;0.90;;;0.90;;
13441;SDS011;6793;55.662;13.114;2024-02-28T08:39:37;0.80;;;0.80;;
13441;SDS011;6793;55.662;13.114;2024-02-28T08:42:07;0.88;;;0.88;;
13441;SDS011;6793;55.662;13.114;2024-02-28T08:44:34;0.90;;;0.90;;
13441;SDS011;6793;55.662;13.114;2024-02-28T08:47:02;0.90;;;0.90;;
13441;SDS011;6793;55.662;13.114;2024-02-28T08:49:29;0.80;;;0.80;;
13441;SDS011;6793;55.662;13.114;2024-02-28T08:51:57;0.80;;;0.80;;
13441;SDS011;6793;55.662;13.114;2024-02-28T08:54:24;0.90;;;0.90;;
13441;SDS011;6793;55.662;13.114;2024-02-28T08:56:51;0.80;;;0.80;;
13441;SDS011;6793;55.662;13.114;2024-02-28T08:59:20;0.70;;;0.70;;
13441;SDS011;6793;55.662;13.114;2024-02-28T09:01:47;0.70;;;0.70;;
13441;SDS011;6793;55.662;13.114;2024-02-28T09:04:14;0.80;;;0.80;;
13441;SDS011;6793;55.662;13.114;2024-02-28T09:06:41;0.85;;;0.85;;
13441;SDS011;6793;55.662;13.114;2024-02-28T09:09:08;0.80;;;0.80;;
13441;SDS011;6793;55.662;13.114;2024-02-28T09:11:35;0.80;;;0.80;;
13441;SDS011;6793;55.662;13.114;2024-02-28T09:14:02;0.80;;;0.80;;
13441;SDS011;6793;55.662;13.114;2024-02-28T09:16:31;0.80;;;0.80;;
13441;SDS011;6793;55.662;13.114;2024-02-28T09:18:58;0.70;;;0.70;;
13441;SDS011;6793;55.662;13.114;2024-02-28T09:21:25;0.75;;;0.75;;
13441;SDS011;6793;55.662;13.114;2024-02-28T09:23:52;0.80;;;0.80;;
13441;SDS011;6793;55.662;13.114;2024-02-28T09:26:19;0.80;;;0.80;;
13441;SDS011;6793;55.662;13.114;2024-02-28T09:28:46;0.80;;;0.80;;
13441;SDS011;6793;55.662;13.114;2024-02-28T09:31:14;0.80;;;0.80;;
13441;SDS011;6793;55.662;13.114;2024-02-28T09:33:42;0.80;;;0.80;;
13441;SDS011;6793;55.662;13.114;2024-02-28T09:36:10;0.80;;;0.80;;
13441;SDS011;6793;55.662;13.114;2024-02-28T09:38:37;0.80;;;0.80;;
13441;SDS011;6793;55.662;13.114;2024-02-28T09:41:06;0.80;;;0.80;;
13441;SDS011;6793;55.662;13.114;2024-02-28T09:43:35;0.80;;;0.80;;
13441;SDS011;6793;55.662;13.114;2024-02-28T09:46:04;0.80;;;0.80;;
13441;SDS011;6793;55.662;13.114;2024-02-28T09:48:31;0.70;;;0.70;;
13441;SDS011;6793;55.662;13.114;2024-02-28T09:51:00;0.70;;;0.70;;
13441;SDS011;6793;55.662;13.114;2024-02-28T09:53:27;0.75;;;0.75;;
13441;SDS011;6793;55.662;13.114;2024-02-28T09:55:54;0.73;;;0.73;;
13441;SDS011;6793;55.662;13.114;2024-02-28T09:58:21;0.80;;;0.80;;
13441;SDS011;6793;55.662;13.114;2024-02-28T10:00:49;0.80;;;0.80;;
13441;SDS011;6793;55.662;13.114;2024-02-28T10:03:17;0.80;;;0.80;;
13441;SDS011;6793;55.662;13.114;2024-02-28T10:05:45;1.00;;;1.00;;
13441;SDS011;6793;55.662;13.114;2024-02-28T10:08:14;0.90;;;0.90;;
13441;SDS011;6793;55.662;13.114;2024-02-28T10:10:44;0.90;;;0.90;;
13441;SDS011;6793;55.662;13.114;2024-02-28T10:13:12;0.90;;;0.90;;
13441;SDS011;6793;55.662;13.114;2024-02-28T10:15:40;0.82;;;0.82;;
13441;SDS011;6793;55.662;13.114;2024-02-28T10:18:07;0.88;;;0.88;;
13441;SDS011;6793;55.662;13.114;2024-02-28T10:20:34;0.80;;;0.80;;
13441;SDS011;6793;55.662;13.114;2024-02-28T10:23:03;0.80;;;0.80;;
13441;SDS011;6793;55.662;13.114;2024-02-28T10:25:32;0.90;;;0.90;;
13441;SDS011;6793;55.662;13.114;2024-02-28T10:28:00;0.80;;;0.80;;
13441;SDS011;6793;55.662;13.114;2024-02-28T10:30:27;0.80;;;0.80;;
13441;SDS011;6793;55.662;13.114;2024-02-28T10:32:55;1.00;;;1.00;;
13441;SDS011;6793;55.662;13.114;2024-02-28T10:35:22;0.80;;;0.80;;
13441;SDS011;6793;55.662;13.114;2024-02-28T10:37:51;0.90;;;0.90;;
13441;SDS011;6793;55.662;13.114;2024-02-28T10:40:18;0.80;;;0.80;;
13441;SDS011;6793;55.662;13.114;2024-02-28T10:42:48;0.90;;;0.90;;
13441;SDS011;6793;55.662;13.114;2024-02-28T10:45:16;0.90;;;0.90;;
13441;SDS011;6793;55.662;13.114;2024-02-28T10:47:45;0.90;;;0.90;;
13441;SDS011;6793;55.662;13.114;2024-02-28T10:50:12;0.90;;;0.90;;
13441;SDS011;6793;55.662;13.114;2024-02-28T10:52:43;0.90;;;0.90;;
13441;SDS011;6793;55.662;13.114;2024-02-28T10:55:12;0.90;;;0.90;;
13441;SDS011;6793;55.662;13.114;2024-02-28T10:57:42;0.80;;;0.80;;
13441;SDS011;6793;55.662;13.114;2024-02-28T11:00:11;0.85;;;0.85;;
13441;SDS011;6793;55.662;13.114;2024-02-28T11:02:41;1.00;;;1.00;;
13441;SDS011;6793;55.662;13.114;2024-02-28T11:05:08;0.90;;;0.90;;
13441;SDS011;6793;55.662;13.114;2024-02-28T11:07:35;0.80;;;0.80;;
13441;SDS011;6793;55.662;13.114;2024-02-28T11:10:04;1.00;;;1.00;;
13441;SDS011;6793;55.662;13.114;2024-02-28T11:12:32;0.80;;;0.80;;
13441;SDS011;6793;55.662;13.114;2024-02-28T11:14:59;1.00;;;1.00;;
13441;SDS011;6793;55.662;13.114;2024-02-28T11:17:29;1.00;;;1.00;;
13441;SDS011;6793;55.662;13.114;2024-02-28T11:19:56;1.00;;;1.00;;
13441;SDS011;6793;55.662;13.114;2024-02-28T11:22:24;1.00;;;1.00;;
13441;SDS011;6793;55.662;13.114;2024-02-28T11:24:54;0.90;;;0.90;;
13441;SDS011;6793;55.662;13.114;2024-02-28T11:27:21;0.90;;;0.90;;
13441;SDS011;6793;55.662;13.114;2024-02-28T11:29:48;0.90;;;0.90;;
13441;SDS011;6793;55.662;13.114;2024-02-28T11:32:15;0.90;;;0.90;;
13441;SDS011;6793;55.662;13.114;2024-02-28T11:34:46;0.90;;;0.90;;
13441;SDS011;6793;55.662;13.114;2024-02-28T11:37:16;1.00;;;1.00;;
13441;SDS011;6793;55.662;13.114;2024-02-28T11:39:46;1.00;;;1.00;;
13441;SDS011;6793;55.662;13.114;2024-02-28T11:42:14;1.00;;;1.00;;
13441;SDS011;6793;55.662;13.114;2024-02-28T11:44:41;1.00;;;1.00;;
13441;SDS011;6793;55.662;13.114;2024-02-28T11:47:08;1.00;;;1.00;;
13441;SDS011;6793;55.662;13.114;2024-02-28T11:49:36;0.95;;;0.95;;
13441;SDS011;6793;55.662;13.114;2024-02-28T11:52:05;0.90;;;0.90;;
13441;SDS011;6793;55.662;13.114;2024-02-28T11:54:32;0.90;;;0.90;;
13441;SDS011;6793;55.662;13.114;2024-02-28T11:56:59;0.98;;;0.98;;
13441;SDS011;6793;55.662;13.114;2024-02-28T11:59:26;1.00;;;1.00;;
13441;SDS011;6793;55.662;13.114;2024-02-28T12:01:53;1.02;;;1.02;;
13441;SDS011;6793;55.662;13.114;2024-02-28T12:04:23;1.00;;;1.00;;
13441;SDS011;6793;55.662;13.114;2024-02-28T12:06:51;0.95;;;0.95;;
13441;SDS011;6793;55.662;13.114;2024-02-28T12:09:19;0.90;;;0.90;;
13441;SDS011;6793;55.662;13.114;2024-02-28T12:11:47;0.98;;;0.98;;
13441;SDS011;6793;55.662;13.114;2024-02-28T12:14:13;0.90;;;0.90;;
13441;SDS011;6793;55.662;13.114;2024-02-28T12:16:40;1.00;;;1.00;;
13441;SDS011;6793;55.662;13.114;2024-02-28T12:19:09;1.00;;;1.00;;
13441;SDS011;6793;55.662;13.114;2024-02-28T12:21:36;1.00;;;1.00;;
13441;SDS011;6793;55.662;13.114;2024-02-28T12:24:04;1.00;;;1.00;;
13441;SDS011;6793;55.662;13.114;2024-02-28T12:26:32;1.00;;;1.00;;
13441;SDS011;6793;55.662;13.114;2024-02-28T12:28:59;1.00;;;1.00;;
13441;SDS011;6793;55.662;13.114;2024-02-28T12:31:27;0.90;;;0.90;;
13441;SDS011;6793;55.662;13.114;2024-02-28T12:33:54;1.00;;;1.00;;
13441;SDS011;6793;55.662;13.114;2024-02-28T12:36:21;0.93;;;0.93;;
13441;SDS011;6793;55.662;13.114;2024-02-28T12:38:48;1.00;;;1.00;;
13441;SDS011;6793;55.662;13.114;2024-02-28T12:41:18;1.00;;;1.00;;
13441;SDS011;6793;55.662;13.114;2024-02-28T12:43:46;1.05;;;1.05;;
13441;SDS011;6793;55.662;13.114;2024-02-28T12:46:15;1.00;;;1.00;;
13441;SDS011;6793;55.662;13.114;2024-02-28T12:48:42;1.00;;;1.00;;
13441;SDS011;6793;55.662;13.114;2024-02-28T12:51:13;1.00;;;1.00;;
13441;SDS011;6793;55.662;13.114;2024-02-28T12:53:47;1.00;;;1.00;;
13441;SDS011;6793;55.662;13.114;2024-02-28T12:56:14;1.00;;;1.00;;
13441;SDS011;6793;55.662;13.114;2024-02-28T12:58:41;1.00;;;1.00;;
13441;SDS011;6793;55.662;13.114;2024-02-28T13:01:10;1.00;;;1.00;;
13441;SDS011;6793;55.662;13.114;2024-02-28T13:03:37;0.90;;;0.90;;
13441;SDS011;6793;55.662;13.114;2024-02-28T13:06:04;1.00;;;1.00;;
13441;SDS011;6793;55.662;13.114;2024-02-28T13:08:31;0.90;;;0.90;;
13441;SDS011;6793;55.662;13.114;2024-02-28T13:10:58;1.00;;;1.00;;
13441;SDS011;6793;55.662;13.114;2024-02-28T13:13:26;0.90;;;0.90;;
13441;SDS011;6793;55.662;13.114;2024-02-28T13:15:53;0.90;;;0.90;;
13441;SDS011;6793;55.662;13.114;2024-02-28T13:18:21;1.00;;;1.00;;
13441;SDS011;6793;55.662;13.114;2024-02-28T13:20:48;0.90;;;0.90;;
13441;SDS011;6793;55.662;13.114;2024-02-28T13:23:16;1.00;;;1.00;;
13441;SDS011;6793;55.662;13.114;2024-02-28T13:25:43;1.00;;;1.00;;
13441;SDS011;6793;55.662;13.114;2024-02-28T13:28:10;1.00;;;1.00;;
13441;SDS011;6793;55.662;13.114;2024-02-28T13:30:37;0.85;;;0.85;;
13441;SDS011;6793;55.662;13.114;2024-02-28T13:33:05;0.90;;;0.90;;
13441;SDS011;6793;55.662;13.114;2024-02-28T13:35:33;1.00;;;1.00;;
13441;SDS011;6793;55.662;13.114;2024-02-28T13:38:03;1.00;;;1.00;;
13441;SDS011;6793;55.662;13.114;2024-02-28T13:40:30;0.90;;;0.90;;
13441;SDS011;6793;55.662;13.114;2024-02-28T13:42:57;1.00;;;1.00;;
13441;SDS011;6793;55.662;13.114;2024-02-28T13:45:24;1.00;;;1.00;;
13441;SDS011;6793;55.662;13.114;2024-02-28T13:47:51;1.00;;;1.00;;
13441;SDS011;6793;55.662;13.114;2024-02-28T13:50:18;0.90;;;0.90;;
13441;SDS011;6793;55.662;13.114;2024-02-28T13:52:47;0.90;;;0.90;;
13441;SDS011;6793;55.662;13.114;2024-02-28T13:55:14;0.98;;;0.98;;
13441;SDS011;6793;55.662;13.114;2024-02-28T13:57:41;0.90;;;0.90;;
13441;SDS011;6793;55.662;13.114;2024-02-28T14:00:08;0.95;;;0.95;;
13441;SDS011;6793;55.662;13.114;2024-02-28T14:02:38;1.00;;;1.00;;
13441;SDS011;6793;55.662;13.114;2024-02-28T14:05:05;0.90;;;0.90;;
13441;SDS011;6793;55.662;13.114;2024-02-28T14:07:33;0.90;;;0.90;;
13441;SDS011;6793;55.662;13.114;2024-02-28T14:10:04;0.90;;;0.90;;
13441;SDS011;6793;55.662;13.114;2024-02-28T14:12:31;1.00;;;1.00;;
13441;SDS011;6793;55.662;13.114;2024-02-28T14:14:58;0.93;;;0.93;;
13441;SDS011;6793;55.662;13.114;2024-02-28T14:17:25;0.90;;;0.90;;
13441;SDS011;6793;55.662;13.114;2024-02-28T14:19:53;0.95;;;0.95;;
13441;SDS011;6793;55.662;13.114;2024-02-28T14:22:20;1.00;;;1.00;;
13441;SDS011;6793;55.662;13.114;2024-02-28T14:24:47;1.00;;;1.00;;
13441;SDS011;6793;55.662;13.114;2024-02-28T14:27:15;0.90;;;0.90;;
13441;SDS011;6793;55.662;13.114;2024-02-28T14:29:44;0.80;;;0.80;;
13441;SDS011;6793;55.662;13.114;2024-02-28T14:32:11;1.00;;;1.00;;
13441;SDS011;6793;55.662;13.114;2024-02-28T14:34:41;0.90;;;0.90;;
13441;SDS011;6793;55.662;13.114;2024-02-28T14:37:08;0.90;;;0.90;;
13441;SDS011;6793;55.662;13.114;2024-02-28T14:39:35;0.95;;;0.95;;
13441;SDS011;6793;55.662;13.114;2024-02-28T14:42:02;0.82;;;0.82;;
13441;SDS011;6793;55.662;13.114;2024-02-28T14:44:31;0.80;;;0.80;;
13441;SDS011;6793;55.662;13.114;2024-02-28T14:46:58;0.90;;;0.90;;
13441;SDS011;6793;55.662;13.114;2024-02-28T14:49:25;0.80;;;0.80;;